Time,TemperatureF,DewpointF,PressureIn,WindDirection,WindDirectionDegrees,WindSpeedMPH,WindSpeedGustMPH,Humidity,HourlyPrecipIn,Conditions,Clouds,dailyrainin,SolarRadiationWatts/m^2,SoftwareType,DateUTC
2013-04-10 00:04:00,72.2,68.8,29.92,South,191,1.0,8.0,89,0.00,,,0.00,0,Wunderground v.1.15,2013-04-10 05:04:00,
2013-04-10 00:09:00,72.2,68.8,29.92,SSE,160,1.0,9.0,89,0.00,,,0.00,0,Wunderground v.1.15,2013-04-10 05:09:00,
2013-04-10 00:15:00,72.2,68.8,29.92,SSW,192,1.0,1.0,89,0.00,,,0.00,0,Wunderground v.1.15,2013-04-10 05:15:00,
2013-04-10 00:20:00,72.2,68.8,29.92,SSW,206,1.0,1.0,89,0.00,,,0.00,0,Wunderground v.1.15,2013-04-10 05:20:00,
2013-04-10 00:25:00,72.1,68.7,29.92,SSE,165,1.0,1.0,89,0.00,,,0.00,0,Wunderground v.1.15,2013-04-10 05:25:00,
2013-04-10 00:30:00,72.1,68.7,29.92,South,169,2.0,2.0,89,0.00,,,0.00,0,Wunderground v.1.15,2013-04-10 05:30:00,
2013-04-10 00:36:00,72.1,69.0,29.92,SSE,155,1.0,4.0,90,0.00,,,0.00,0,Wunderground v.1.15,2013-04-10 05:36:00,
2013-04-10 00:42:00,72.1,69.0,29.92,South,173,1.0,1.0,90,0.00,,,0.00,0,Wunderground v.1.15,2013-04-10 05:42:00,
2013-04-10 00:47:00,72.0,68.9,29.91,ESE,104,1.0,9.0,90,0.00,,,0.00,0,Wunderground v.1.15,2013-04-10 05:47:00,
2013-04-10 00:52:00,72.0,68.9,29.91,SE,145,2.0,2.0,90,0.00,,,0.00,0,Wunderground v.1.15,2013-04-10 05:52:00,
2013-04-10 00:57:00,72.0,68.9,29.91,SSE,151,2.0,8.0,90,0.00,,,0.00,0,Wunderground v.1.15,2013-04-10 05:57:00,
2013-04-10 01:03:00,72.0,68.9,29.90,ESE,119,2.0,9.0,90,0.00,,,0.00,0,Wunderground v.1.15,2013-04-10 06:03:00,
2013-04-10 01:13:00,71.9,68.8,29.90,South,176,1.0,9.0,90,0.00,,,0.00,0,Wunderground v.1.15,2013-04-10 06:13:00,
2013-04-10 01:29:00,71.8,68.7,29.90,South,171,1.0,9.0,90,0.00,,,0.00,0,Wunderground v.1.15,2013-04-10 06:29:00,
2013-04-10 01:53:00,71.7,68.6,29.89,South,183,1.0,9.0,90,0.00,,,0.00,0,Wunderground v.1.15,2013-04-10 06:53:00,
2013-04-10 02:16:00,71.9,68.5,29.88,South,177,2.0,12.0,89,0.00,,,0.00,0,Wunderground v.1.15,2013-04-10 07:16:00,
2013-04-10 02:23:00,71.9,68.5,29.88,ESE,111,2.0,9.0,89,0.00,,,0.00,0,Wunderground v.1.15,2013-04-10 07:23:00,
2013-04-10 02:28:00,71.9,68.5,29.87,South,173,2.0,9.0,89,0.00,,,0.00,0,Wunderground v.1.15,2013-04-10 07:28:00,
2013-04-10 02:34:00,71.9,68.5,29.87,SE,128,3.0,9.0,89,0.00,,,0.00,0,Wunderground v.1.15,2013-04-10 07:34:00,
2013-04-10 02:40:00,71.9,68.2,29.87,SE,131,2.0,9.0,88,0.00,,,0.00,0,Wunderground v.1.15,2013-04-10 07:40:00,
2013-04-10 02:45:00,71.9,68.2,29.87,SW,216,3.0,9.0,88,0.00,,,0.00,0,Wunderground v.1.15,2013-04-10 07:45:00,
2013-04-10 02:50:00,72.0,68.2,29.88,SW,233,3.0,9.0,88,0.00,,,0.00,0,Wunderground v.1.15,2013-04-10 07:50:00,
2013-04-10 02:55:00,71.9,68.2,29.87,South,176,2.0,9.0,88,0.00,,,0.00,0,Wunderground v.1.15,2013-04-10 07:55:00,
2013-04-10 03:01:00,71.9,68.2,29.87,SSE,155,2.0,12.0,88,0.00,,,0.00,0,Wunderground v.1.15,2013-04-10 08:01:00,
2013-04-10 03:06:00,71.9,68.2,29.86,SSE,165,2.0,12.0,88,0.00,,,0.00,0,Wunderground v.1.15,2013-04-10 08:06:00,
2013-04-10 03:12:00,71.8,68.1,29.87,SSE,164,1.0,9.0,88,0.00,,,0.00,0,Wunderground v.1.15,2013-04-10 08:12:00,
2013-04-10 03:17:00,71.8,68.1,29.87,SSW,196,2.0,9.0,88,0.00,,,0.00,0,Wunderground v.1.15,2013-04-10 08:17:00,
2013-04-10 03:22:00,71.8,68.1,29.87,SSE,167,1.0,9.0,88,0.00,,,0.00,0,Wunderground v.1.15,2013-04-10 08:22:00,
2013-04-10 03:28:00,71.8,68.4,29.87,SSE,155,1.0,9.0,89,0.00,,,0.00,0,Wunderground v.1.15,2013-04-10 08:28:00,
2013-04-10 03:33:00,71.7,68.3,29.86,SSE,157,1.0,9.0,89,0.00,,,0.00,0,Wunderground v.1.15,2013-04-10 08:33:00,
2013-04-10 03:38:00,71.7,68.3,29.86,SE,125,1.0,9.0,89,0.00,,,0.00,0,Wunderground v.1.15,2013-04-10 08:38:00,
2013-04-10 03:44:00,71.6,68.2,29.86,SSE,148,2.0,9.0,89,0.00,,,0.00,0,Wunderground v.1.15,2013-04-10 08:44:00,
2013-04-10 03:49:00,71.6,68.2,29.86,South,173,2.0,9.0,89,0.00,,,0.00,0,Wunderground v.1.15,2013-04-10 08:49:00,
2013-04-10 03:54:00,71.6,68.2,29.86,ESE,123,2.0,9.0,89,0.00,,,0.00,0,Wunderground v.1.15,2013-04-10 08:54:00,
2013-04-10 04:00:00,71.6,68.2,29.86,SW,221,1.0,1.0,89,0.00,,,0.00,0,Wunderground v.1.15,2013-04-10 09:00:00,
2013-04-10 04:05:00,71.6,68.2,29.86,South,174,1.0,9.0,89,0.00,,,0.00,0,Wunderground v.1.15,2013-04-10 09:05:00,
2013-04-10 04:10:00,71.5,68.1,29.86,South,181,1.0,1.0,89,0.00,,,0.00,0,Wunderground v.1.15,2013-04-10 09:10:00,
2013-04-10 04:16:00,71.5,68.1,29.86,SSE,159,1.0,9.0,89,0.00,,,0.00,0,Wunderground v.1.15,2013-04-10 09:16:00,
2013-04-10 04:21:00,71.4,68.0,29.86,SE,142,1.0,7.0,89,0.00,,,0.00,0,Wunderground v.1.15,2013-04-10 09:21:00,
2013-04-10 04:27:00,71.4,68.0,29.85,SSE,157,1.0,9.0,89,0.00,,,0.00,0,Wunderground v.1.15,2013-04-10 09:27:00,
2013-04-10 04:32:00,71.3,67.9,29.85,SSE,160,2.0,9.0,89,0.00,,,0.00,0,Wunderground v.1.15,2013-04-10 09:32:00,
2013-04-10 04:43:00,71.3,68.2,29.85,South,190,0.0,9.0,90,0.00,,,0.00,0,Wunderground v.1.15,2013-04-10 09:43:00,
2013-04-10 04:52:00,71.3,68.2,29.85,South,170,2.0,10.0,90,0.00,,,0.00,0,Wunderground v.1.15,2013-04-10 09:52:00,
2013-04-10 04:57:00,71.3,68.2,29.84,SE,131,2.0,10.0,90,0.00,,,0.00,0,Wunderground v.1.15,2013-04-10 09:57:00,
2013-04-10 05:03:00,71.2,68.1,29.84,SE,142,2.0,9.0,90,0.00,,,0.00,0,Wunderground v.1.15,2013-04-10 10:03:00,
2013-04-10 05:08:00,71.2,68.1,29.84,SSE,154,1.0,9.0,90,0.00,,,0.00,0,Wunderground v.1.15,2013-04-10 10:08:00,
2013-04-10 05:14:00,71.2,68.1,29.84,SW,218,1.0,9.0,90,0.00,,,0.00,0,Wunderground v.1.15,2013-04-10 10:14:00,
2013-04-10 05:19:00,71.1,68.0,29.84,SE,140,1.0,9.0,90,0.00,,,0.00,0,Wunderground v.1.15,2013-04-10 10:19:00,
2013-04-10 05:24:00,71.1,68.0,29.84,SE,125,1.0,9.0,90,0.00,,,0.00,0,Wunderground v.1.15,2013-04-10 10:24:00,
2013-04-10 05:30:00,71.0,67.9,29.84,SSE,166,1.0,1.0,90,0.00,,,0.00,0,Wunderground v.1.15,2013-04-10 10:30:00,
2013-04-10 05:35:00,71.0,67.9,29.83,SE,133,1.0,9.0,90,0.00,,,0.00,0,Wunderground v.1.15,2013-04-10 10:35:00,
2013-04-10 05:40:00,71.0,67.9,29.83,SE,130,0.0,9.0,90,0.00,,,0.00,0,Wunderground v.1.15,2013-04-10 10:40:00,
2013-04-10 05:45:00,70.9,67.8,29.83,SSW,199,0.0,9.0,90,0.00,,,0.00,0,Wunderground v.1.15,2013-04-10 10:45:00,
2013-04-10 06:04:00,70.9,67.8,29.84,South,186,1.0,9.0,90,0.00,,,0.00,0,Wunderground v.1.15,2013-04-10 11:04:00,
2013-04-10 06:18:00,70.8,67.7,29.85,South,181,1.0,9.0,90,0.00,,,0.00,0,Wunderground v.1.15,2013-04-10 11:18:00,
2013-04-10 06:24:00,70.8,67.7,29.85,SE,146,1.0,9.0,90,0.00,,,0.00,0,Wunderground v.1.15,2013-04-10 11:24:00,
2013-04-10 06:35:00,70.8,68.0,29.85,SSE,148,1.0,9.0,91,0.00,,,0.00,0,Wunderground v.1.15,2013-04-10 11:35:00,
2013-04-10 06:41:00,70.7,67.9,29.85,ESE,119,1.0,9.0,91,0.00,,,0.00,0,Wunderground v.1.15,2013-04-10 11:41:00,
2013-04-10 07:08:00,70.5,68.1,29.85,South,170,1.0,9.0,92,0.00,,,0.00,30,Wunderground v.1.15,2013-04-10 12:08:00,
2013-04-10 07:18:00,70.4,67.6,29.83,SE,126,2.0,13.0,91,0.00,,,0.00,70,Wunderground v.1.15,2013-04-10 12:18:00,
2013-04-10 07:24:00,70.4,67.6,29.84,SE,138,3.0,13.0,91,0.00,,,0.00,79,Wunderground v.1.15,2013-04-10 12:24:00,
2013-04-10 07:29:00,70.5,67.7,29.84,ESE,117,3.0,13.0,91,0.00,,,0.00,74,Wunderground v.1.15,2013-04-10 12:29:00,
2013-04-10 07:35:00,70.5,67.7,29.83,SE,140,2.0,9.0,91,0.00,,,0.00,88,Wunderground v.1.15,2013-04-10 12:35:00,
2013-04-10 07:40:00,70.5,67.7,29.83,ESE,122,2.0,2.0,91,0.00,,,0.00,91,Wunderground v.1.15,2013-04-10 12:40:00,
2013-04-10 07:45:00,70.6,67.8,29.84,SSE,165,2.0,9.0,91,0.00,,,0.00,67,Wunderground v.1.15,2013-04-10 12:45:00,
2013-04-10 07:50:00,70.6,67.8,29.85,SE,127,4.0,4.0,91,0.00,,,0.00,86,Wunderground v.1.15,2013-04-10 12:50:00,
2013-04-10 08:03:00,70.8,67.7,29.85,South,181,2.0,9.0,90,0.00,,,0.00,60,Wunderground v.1.15,2013-04-10 13:03:00,
2013-04-10 08:19:00,71.0,67.9,29.86,SSW,194,1.0,9.0,90,0.00,,,0.00,35,Wunderground v.1.15,2013-04-10 13:19:00,
2013-04-10 08:30:00,71.0,67.9,29.86,SSW,198,0.0,9.0,90,0.00,,,0.00,35,Wunderground v.1.15,2013-04-10 13:30:00,
2013-04-10 08:36:00,71.0,67.9,29.87,South,184,1.0,9.0,90,0.00,,,0.00,46,Wunderground v.1.15,2013-04-10 13:36:00,
2013-04-10 08:45:00,71.0,67.9,29.87,SSW,200,1.0,9.0,90,0.00,,,0.00,81,Wunderground v.1.15,2013-04-10 13:45:00,
2013-04-10 09:12:00,71.7,68.3,29.88,SSE,167,1.0,9.0,89,0.00,,,0.00,121,Wunderground v.1.15,2013-04-10 14:12:00,
2013-04-10 09:17:00,71.9,68.5,29.88,SSW,208,0.0,9.0,89,0.00,,,0.00,114,Wunderground v.1.15,2013-04-10 14:17:00,
2013-04-10 09:23:00,72.1,68.3,29.89,South,174,1.0,9.0,88,0.00,,,0.00,218,Wunderground v.1.15,2013-04-10 14:23:00,
2013-04-10 09:35:00,72.3,68.2,29.89,South,182,1.0,9.0,87,0.00,,,0.00,211,Wunderground v.1.15,2013-04-10 14:35:00,
2013-04-10 09:46:00,72.7,68.6,29.89,South,183,1.0,9.0,87,0.00,,,0.00,113,Wunderground v.1.15,2013-04-10 14:46:00,
2013-04-10 09:52:00,72.7,68.6,29.90,SSE,154,2.0,9.0,87,0.00,,,0.00,139,Wunderground v.1.15,2013-04-10 14:52:00,
2013-04-10 09:57:00,72.7,68.6,29.90,SSW,197,1.0,9.0,87,0.00,,,0.00,151,Wunderground v.1.15,2013-04-10 14:57:00,
2013-04-10 10:03:00,72.7,68.6,29.91,SSE,165,1.0,9.0,87,0.00,,,0.00,151,Wunderground v.1.15,2013-04-10 15:03:00,
2013-04-10 10:08:00,72.8,68.7,29.91,SSW,209,2.0,10.0,87,0.00,,,0.00,227,Wunderground v.1.15,2013-04-10 15:08:00,
2013-04-10 10:14:00,73.2,68.8,29.91,SSW,198,2.0,9.0,86,0.00,,,0.00,295,Wunderground v.1.15,2013-04-10 15:14:00,
2013-04-10 10:19:00,73.6,69.2,29.90,SSE,165,1.0,9.0,86,0.00,,,0.00,225,Wunderground v.1.15,2013-04-10 15:19:00,
2013-04-10 10:24:00,73.8,69.0,29.90,South,173,0.0,9.0,85,0.00,,,0.00,190,Wunderground v.1.15,2013-04-10 15:24:00,
2013-04-10 10:30:00,73.8,69.0,29.91,South,176,1.0,1.0,85,0.00,,,0.00,366,Wunderground v.1.15,2013-04-10 15:30:00,
2013-04-10 10:35:00,73.7,68.6,29.91,SSE,152,2.0,9.0,84,0.00,,,0.00,322,Wunderground v.1.15,2013-04-10 15:35:00,
2013-04-10 10:41:00,73.9,68.8,29.91,South,181,3.0,9.0,84,0.00,,,0.00,244,Wunderground v.1.15,2013-04-10 15:41:00,
2013-04-10 10:46:00,74.0,68.9,29.91,SSW,204,1.0,9.0,84,0.00,,,0.00,336,Wunderground v.1.15,2013-04-10 15:46:00,
2013-04-10 10:51:00,74.1,69.0,29.91,SSE,167,2.0,3.0,84,0.00,,,0.00,292,Wunderground v.1.15,2013-04-10 15:51:00,
2013-04-10 10:57:00,74.4,68.9,29.91,South,182,3.0,9.0,83,0.00,,,0.00,404,Wunderground v.1.15,2013-04-10 15:57:00,
2013-04-10 11:02:00,74.8,69.6,29.91,SSW,197,2.0,9.0,84,0.00,,,0.00,367,Wunderground v.1.15,2013-04-10 16:02:00,
2013-04-10 11:08:00,75.1,69.2,29.91,ESE,121,2.0,9.0,82,0.00,,,0.00,445,Wunderground v.1.15,2013-04-10 16:08:00,
2013-04-10 11:13:00,75.3,69.4,29.91,SSE,167,2.0,9.0,82,0.00,,,0.00,345,Wunderground v.1.15,2013-04-10 16:13:00,
2013-04-10 11:19:00,75.4,69.5,29.91,SW,217,1.0,9.0,82,0.00,,,0.00,257,Wunderground v.1.15,2013-04-10 16:19:00,
2013-04-10 11:24:00,75.3,69.8,29.91,South,173,1.0,9.0,83,0.00,,,0.00,163,Wunderground v.1.15,2013-04-10 16:24:00,
2013-04-10 11:29:00,75.1,69.2,29.91,SSE,150,1.0,9.0,82,0.00,,,0.00,202,Wunderground v.1.15,2013-04-10 16:29:00,
2013-04-10 11:37:00,74.8,69.3,29.91,South,175,1.0,12.0,83,0.00,,,0.00,174,Wunderground v.1.15,2013-04-10 16:37:00,
2013-04-10 11:44:00,74.8,69.3,29.91,SSE,148,1.0,9.0,83,0.00,,,0.00,257,Wunderground v.1.15,2013-04-10 16:44:00,
2013-04-10 11:50:00,74.9,69.7,29.90,WSW,258,1.0,1.0,84,0.00,,,0.00,278,Wunderground v.1.15,2013-04-10 16:50:00,
2013-04-10 11:55:00,74.9,69.7,29.90,SSE,158,2.0,9.0,84,0.00,,,0.00,287,Wunderground v.1.15,2013-04-10 16:55:00,
2013-04-10 12:02:00,74.9,69.7,29.90,SSE,161,1.0,9.0,84,0.00,,,0.00,250,Wunderground v.1.15,2013-04-10 17:02:00,
2013-04-10 12:07:00,75.0,69.8,29.89,SSE,154,1.0,9.0,84,0.00,,,0.00,652,Wunderground v.1.15,2013-04-10 17:07:00,
2013-04-10 12:13:00,75.8,70.3,29.89,SSE,166,2.0,9.0,83,0.00,,,0.00,847,Wunderground v.1.15,2013-04-10 17:13:00,
2013-04-10 12:18:00,76.7,70.4,29.89,SSW,194,3.0,9.0,81,0.00,,,0.00,1042,Wunderground v.1.15,2013-04-10 17:18:00,
2013-04-10 12:23:00,77.6,71.3,29.89,South,185,1.0,9.0,81,0.00,,,0.00,343,Wunderground v.1.15,2013-04-10 17:23:00,
2013-04-10 12:28:00,77.8,70.8,29.89,SSW,206,1.0,9.0,79,0.00,,,0.00,313,Wunderground v.1.15,2013-04-10 17:28:00,
2013-04-10 12:33:00,77.6,70.6,29.89,SSE,157,2.0,9.0,79,0.00,,,0.00,290,Wunderground v.1.15,2013-04-10 17:33:00,
2013-04-10 12:39:00,77.3,69.9,29.89,South,191,3.0,10.0,78,0.00,,,0.00,942,Wunderground v.1.15,2013-04-10 17:39:00,
2013-04-10 12:44:00,77.7,70.3,29.89,SE,140,3.0,9.0,78,0.00,,,0.00,657,Wunderground v.1.15,2013-04-10 17:44:00,
2013-04-10 12:49:00,77.9,70.9,29.89,SSE,166,3.0,9.0,79,0.00,,,0.00,264,Wunderground v.1.15,2013-04-10 17:49:00,
2013-04-10 12:55:00,77.3,69.9,29.89,SSW,208,2.0,14.0,78,0.00,,,0.00,281,Wunderground v.1.15,2013-04-10 17:55:00,
2013-04-10 13:00:00,76.9,69.9,29.89,SE,136,3.0,9.0,79,0.00,,,0.00,186,Wunderground v.1.15,2013-04-10 18:00:00,
2013-04-10 13:06:00,76.7,69.7,29.89,SSE,166,2.0,9.0,79,0.00,,,0.00,260,Wunderground v.1.15,2013-04-10 18:06:00,
2013-04-10 13:11:00,76.7,70.1,29.89,SSE,165,2.0,9.0,80,0.00,,,0.00,323,Wunderground v.1.15,2013-04-10 18:11:00,
2013-04-10 13:16:00,76.8,69.4,29.89,SSW,197,3.0,9.0,78,0.00,,,0.00,373,Wunderground v.1.15,2013-04-10 18:16:00,
2013-04-10 13:21:00,77.0,70.0,29.88,SSE,157,3.0,8.0,79,0.00,,,0.00,464,Wunderground v.1.15,2013-04-10 18:21:00,
2013-04-10 13:27:00,77.3,69.9,29.88,SE,127,1.0,9.0,78,0.00,,,0.00,628,Wunderground v.1.15,2013-04-10 18:27:00,
2013-04-10 13:32:00,77.8,70.4,29.88,SSW,209,1.0,9.0,78,0.00,,,0.00,638,Wunderground v.1.15,2013-04-10 18:32:00,
2013-04-10 13:38:00,78.7,70.9,29.87,East,90,1.0,9.0,77,0.00,,,0.00,1021,Wunderground v.1.15,2013-04-10 18:38:00,
2013-04-10 13:43:00,79.1,70.5,29.87,South,178,1.0,9.0,75,0.00,,,0.00,984,Wunderground v.1.15,2013-04-10 18:43:00,
2013-04-10 13:48:00,79.2,70.6,29.87,South,180,2.0,9.0,75,0.00,,,0.00,942,Wunderground v.1.15,2013-04-10 18:48:00,
2013-04-10 13:54:00,79.0,70.0,29.86,SE,136,4.0,12.0,74,0.00,,,0.00,930,Wunderground v.1.15,2013-04-10 18:54:00,
2013-04-10 13:59:00,79.2,70.6,29.87,SE,145,5.0,12.0,75,0.00,,,0.00,960,Wunderground v.1.15,2013-04-10 18:59:00,
2013-04-10 14:05:00,79.5,70.5,29.86,SSE,162,4.0,10.0,74,0.00,,,0.00,958,Wunderground v.1.15,2013-04-10 19:05:00,
2013-04-10 14:29:00,79.5,69.7,29.85,South,179,4.0,11.0,72,0.00,,,0.00,197,Wunderground v.1.15,2013-04-10 19:29:00,
2013-04-10 14:39:00,79.0,69.2,29.85,SE,140,3.0,9.0,72,0.00,,,0.00,229,Wunderground v.1.15,2013-04-10 19:39:00,
2013-04-10 14:45:00,79.0,69.2,29.85,SE,131,2.0,11.0,72,0.00,,,0.00,218,Wunderground v.1.15,2013-04-10 19:45:00,
2013-04-10 14:50:00,79.0,69.6,29.85,SSW,198,1.0,1.0,73,0.00,,,0.00,267,Wunderground v.1.15,2013-04-10 19:50:00,
2013-04-10 14:56:00,79.2,69.0,29.84,SSW,204,2.0,9.0,71,0.00,,,0.00,206,Wunderground v.1.15,2013-04-10 19:56:00,
2013-04-10 15:01:00,79.4,69.6,29.84,South,185,2.0,9.0,72,0.00,,,0.00,357,Wunderground v.1.15,2013-04-10 20:01:00,
2013-04-10 15:10:00,79.6,70.2,29.84,SSE,151,1.0,1.0,73,0.00,,,0.00,306,Wunderground v.1.15,2013-04-10 20:10:00,
2013-04-10 15:16:00,79.8,70.0,29.83,South,188,2.0,12.0,72,0.00,,,0.00,288,Wunderground v.1.15,2013-04-10 20:16:00,
2013-04-10 15:22:00,79.5,70.1,29.83,SE,128,1.0,9.0,73,0.00,,,0.00,237,Wunderground v.1.15,2013-04-10 20:22:00,
2013-04-10 15:27:00,79.2,70.2,29.83,SE,138,1.0,9.0,74,0.00,,,0.00,271,Wunderground v.1.15,2013-04-10 20:27:00,
2013-04-10 15:32:00,79.1,69.7,29.83,SE,146,1.0,9.0,73,0.00,,,0.00,383,Wunderground v.1.15,2013-04-10 20:32:00,
2013-04-10 15:38:00,79.5,70.1,29.83,SE,140,2.0,9.0,73,0.00,,,0.00,376,Wunderground v.1.15,2013-04-10 20:38:00,
2013-04-10 15:43:00,79.8,70.8,29.82,East,89,1.0,11.0,74,0.00,,,0.00,485,Wunderground v.1.15,2013-04-10 20:43:00,
2013-04-10 15:49:00,79.7,70.3,29.82,SSE,167,1.0,12.0,73,0.00,,,0.00,485,Wunderground v.1.15,2013-04-10 20:49:00,
2013-04-10 16:03:00,79.8,70.4,29.82,SE,138,3.0,9.0,73,0.00,,,0.00,654,Wunderground v.1.15,2013-04-10 21:03:00,
2013-04-10 16:08:00,80.1,69.8,29.81,SE,140,2.0,12.0,71,0.00,,,0.00,295,Wunderground v.1.15,2013-04-10 21:08:00,
2013-04-10 16:16:00,79.6,69.4,29.81,SSE,162,3.0,14.0,71,0.00,,,0.00,214,Wunderground v.1.15,2013-04-10 21:16:00,
2013-04-10 16:21:00,79.5,69.3,29.81,SSE,152,4.0,9.0,71,0.00,,,0.00,599,Wunderground v.1.15,2013-04-10 21:21:00,
2013-04-10 16:26:00,79.8,69.6,29.81,ESE,122,4.0,9.0,71,0.00,,,0.00,582,Wunderground v.1.15,2013-04-10 21:26:00,
2013-04-10 16:32:00,79.6,69.4,29.81,SSE,165,4.0,9.0,71,0.00,,,0.00,355,Wunderground v.1.15,2013-04-10 21:32:00,
2013-04-10 16:37:00,79.6,69.4,29.80,South,190,4.0,9.0,71,0.00,,,0.00,220,Wunderground v.1.15,2013-04-10 21:37:00,
2013-04-10 16:43:00,79.5,69.7,29.80,SSE,160,3.0,9.0,72,0.00,,,0.00,204,Wunderground v.1.15,2013-04-10 21:43:00,
2013-04-10 16:48:00,79.4,69.6,29.80,SE,140,3.0,9.0,72,0.00,,,0.00,227,Wunderground v.1.15,2013-04-10 21:48:00,
2013-04-10 16:53:00,79.7,69.9,29.80,SE,129,3.0,9.0,72,0.00,,,0.00,206,Wunderground v.1.15,2013-04-10 21:53:00,
2013-04-10 16:58:00,79.8,70.0,29.80,WSW,250,2.0,9.0,72,0.00,,,0.00,596,Wunderground v.1.15,2013-04-10 21:58:00,
2013-04-10 17:04:00,79.7,69.5,29.80,SSE,156,2.0,9.0,71,0.00,,,0.00,186,Wunderground v.1.15,2013-04-10 22:04:00,
2013-04-10 17:09:00,79.3,69.5,29.81,SSE,158,3.0,11.0,72,0.00,,,0.00,153,Wunderground v.1.15,2013-04-10 22:09:00,
2013-04-10 17:14:00,78.9,69.5,29.80,South,169,2.0,9.0,73,0.00,,,0.00,186,Wunderground v.1.15,2013-04-10 22:14:00,
2013-04-10 17:19:00,78.7,69.7,29.80,SSW,206,1.0,9.0,74,0.00,,,0.00,179,Wunderground v.1.15,2013-04-10 22:19:00,
2013-04-10 17:25:00,78.8,70.2,29.80,SSE,167,0.0,9.0,75,0.00,,,0.00,432,Wunderground v.1.15,2013-04-10 22:25:00,
2013-04-10 17:31:00,79.2,70.6,29.80,SE,134,1.0,9.0,75,0.00,,,0.00,362,Wunderground v.1.15,2013-04-10 22:31:00,
2013-04-10 17:37:00,78.7,70.5,29.80,SSE,164,3.0,9.0,76,0.00,,,0.00,105,Wunderground v.1.15,2013-04-10 22:37:00,
2013-04-10 17:42:00,78.1,70.3,29.80,SSE,155,4.0,9.0,77,0.00,,,0.00,193,Wunderground v.1.15,2013-04-10 22:42:00,
2013-04-10 17:47:00,77.8,70.4,29.80,SSE,159,4.0,9.0,78,0.00,,,0.00,77,Wunderground v.1.15,2013-04-10 22:47:00,
2013-04-10 17:52:00,77.4,70.4,29.80,ESE,115,3.0,11.0,79,0.00,,,0.00,70,Wunderground v.1.15,2013-04-10 22:52:00,
2013-04-10 17:57:00,77.2,70.5,29.80,SE,146,2.0,11.0,80,0.00,,,0.00,90,Wunderground v.1.15,2013-04-10 22:57:00,
2013-04-10 18:03:00,77.1,70.5,29.80,ESE,119,2.0,9.0,80,0.00,,,0.00,102,Wunderground v.1.15,2013-04-10 23:03:00,
2013-04-10 18:08:00,77.1,70.5,29.79,South,175,1.0,9.0,80,0.00,,,0.00,120,Wunderground v.1.15,2013-04-10 23:08:00,
2013-04-10 18:13:00,77.1,70.5,29.79,SSE,168,1.0,9.0,80,0.00,,,0.00,116,Wunderground v.1.15,2013-04-10 23:13:00,
2013-04-10 18:19:00,77.0,70.4,29.79,SSE,154,2.0,9.0,80,0.00,,,0.00,86,Wunderground v.1.15,2013-04-10 23:19:00,
2013-04-10 18:24:00,76.9,70.3,29.79,SSE,147,1.0,9.0,80,0.00,,,0.00,69,Wunderground v.1.15,2013-04-10 23:24:00,
2013-04-10 18:29:00,76.8,70.5,29.79,South,184,0.0,9.0,81,0.00,,,0.00,76,Wunderground v.1.15,2013-04-10 23:29:00,
2013-04-10 18:35:00,76.8,70.5,29.79,SE,132,0.0,9.0,81,0.00,,,0.00,116,Wunderground v.1.15,2013-04-10 23:35:00,
2013-04-10 18:40:00,76.8,70.9,29.79,SSE,166,0.0,9.0,82,0.00,,,0.00,93,Wunderground v.1.15,2013-04-10 23:40:00,
2013-04-10 18:46:00,76.7,70.8,29.79,SSE,165,0.0,9.0,82,0.00,,,0.00,70,Wunderground v.1.15,2013-04-10 23:46:00,
2013-04-10 18:52:00,76.5,70.6,29.79,SE,139,1.0,9.0,82,0.00,,,0.00,35,Wunderground v.1.15,2013-04-10 23:52:00,
2013-04-10 18:57:00,76.2,70.3,29.79,SSE,152,3.0,9.0,82,0.00,,,0.00,19,Wunderground v.1.15,2013-04-10 23:57:00,
2013-04-10 19:02:00,75.9,70.4,29.79,SSE,151,3.0,9.0,83,0.00,,,0.00,14,Wunderground v.1.15,2013-04-11 00:02:00,
2013-04-10 19:08:00,75.6,70.1,29.79,South,170,1.0,9.0,83,0.00,,,0.00,11,Wunderground v.1.15,2013-04-11 00:08:00,
2013-04-10 19:13:00,75.4,70.2,29.79,SE,133,1.0,9.0,84,0.00,,,0.00,12,Wunderground v.1.15,2013-04-11 00:13:00,
2013-04-10 19:18:00,75.1,69.9,29.79,SE,131,1.0,9.0,84,0.00,,,0.00,0,Wunderground v.1.15,2013-04-11 00:18:00,
2013-04-10 19:24:00,74.9,70.1,29.79,SSE,158,2.0,9.0,85,0.00,,,0.00,0,Wunderground v.1.15,2013-04-11 00:24:00,
2013-04-10 19:29:00,74.7,69.9,29.79,SSE,151,1.0,9.0,85,0.00,,,0.00,0,Wunderground v.1.15,2013-04-11 00:29:00,
2013-04-10 19:35:00,74.5,69.7,29.79,ESE,111,1.0,9.0,85,0.00,,,0.00,0,Wunderground v.1.15,2013-04-11 00:35:00,
2013-04-10 19:41:00,74.3,69.5,29.79,SE,133,2.0,9.0,85,0.00,,,0.00,0,Wunderground v.1.15,2013-04-11 00:41:00,
2013-04-10 19:47:00,74.1,69.6,29.80,SE,124,1.0,9.0,86,0.00,,,0.00,0,Wunderground v.1.15,2013-04-11 00:47:00,
2013-04-10 19:52:00,74.0,69.5,29.80,SSE,148,1.0,9.0,86,0.00,,,0.00,0,Wunderground v.1.15,2013-04-11 00:52:00,
2013-04-10 19:58:00,73.8,69.7,29.80,SE,136,1.0,9.0,87,0.00,,,0.00,0,Wunderground v.1.15,2013-04-11 00:58:00,
2013-04-10 20:03:00,73.6,69.5,29.80,ESE,120,1.0,9.0,87,0.00,,,0.00,0,Wunderground v.1.15,2013-04-11 01:03:00,
2013-04-10 20:09:00,73.4,69.6,29.80,SSE,152,1.0,9.0,88,0.00,,,0.00,0,Wunderground v.1.15,2013-04-11 01:09:00,
2013-04-10 20:14:00,73.3,69.5,29.80,SSE,160,1.0,9.0,88,0.00,,,0.00,0,Wunderground v.1.15,2013-04-11 01:14:00,
2013-04-10 20:20:00,73.1,69.3,29.80,East,98,1.0,9.0,88,0.00,,,0.00,0,Wunderground v.1.15,2013-04-11 01:20:00,
2013-04-10 20:25:00,72.9,69.5,29.79,SE,127,1.0,9.0,89,0.00,,,0.00,0,Wunderground v.1.15,2013-04-11 01:25:00,
2013-04-10 20:30:00,72.8,69.4,29.79,SE,139,2.0,2.0,89,0.00,,,0.00,0,Wunderground v.1.15,2013-04-11 01:30:00,
2013-04-10 20:36:00,72.7,69.3,29.79,SE,132,1.0,9.0,89,0.00,,,0.00,0,Wunderground v.1.15,2013-04-11 01:36:00,
2013-04-10 20:42:00,72.6,69.2,29.79,South,177,1.0,9.0,89,0.00,,,0.00,0,Wunderground v.1.15,2013-04-11 01:42:00,
2013-04-10 20:47:00,72.6,69.2,29.79,SE,142,0.0,9.0,89,0.00,,,0.00,0,Wunderground v.1.15,2013-04-11 01:47:00,
2013-04-10 20:53:00,72.5,69.1,29.79,SSW,213,1.0,9.0,89,0.00,,,0.00,0,Wunderground v.1.15,2013-04-11 01:53:00,
2013-04-10 20:58:00,72.5,69.1,29.79,SE,146,1.0,9.0,89,0.00,,,0.00,0,Wunderground v.1.15,2013-04-11 01:58:00,
2013-04-10 21:03:00,72.4,69.0,29.80,SSW,194,1.0,9.0,89,0.00,,,0.00,0,Wunderground v.1.15,2013-04-11 02:03:00,
2013-04-10 21:08:00,72.4,69.0,29.79,SSW,196,2.0,9.0,89,0.00,,,0.00,0,Wunderground v.1.15,2013-04-11 02:08:00,
2013-04-10 21:14:00,72.3,68.9,29.80,ESE,113,1.0,9.0,89,0.00,,,0.00,0,Wunderground v.1.15,2013-04-11 02:14:00,
2013-04-10 21:20:00,72.3,68.9,29.79,SE,131,0.0,9.0,89,0.00,,,0.00,0,Wunderground v.1.15,2013-04-11 02:20:00,
2013-04-10 21:25:00,72.2,68.8,29.80,SSE,160,1.0,9.0,89,0.00,,,0.00,0,Wunderground v.1.15,2013-04-11 02:25:00,
2013-04-10 21:32:00,72.1,69.0,29.80,South,172,1.0,9.0,90,0.00,,,0.00,0,Wunderground v.1.15,2013-04-11 02:32:00,
2013-04-10 21:38:00,72.0,68.9,29.80,SSE,158,1.0,9.0,90,0.00,,,0.00,0,Wunderground v.1.15,2013-04-11 02:38:00,
2013-04-10 21:43:00,71.9,68.8,29.80,SE,125,1.0,9.0,90,0.00,,,0.00,0,Wunderground v.1.15,2013-04-11 02:43:00,
2013-04-10 21:49:00,71.8,68.7,29.80,SE,135,1.0,9.0,90,0.00,,,0.00,0,Wunderground v.1.15,2013-04-11 02:49:00,
2013-04-10 21:54:00,71.7,68.6,29.80,SE,140,1.0,9.0,90,0.00,,,0.00,0,Wunderground v.1.15,2013-04-11 02:54:00,
2013-04-10 21:59:00,71.7,68.9,29.79,SSW,209,1.0,9.0,91,0.00,,,0.00,0,Wunderground v.1.15,2013-04-11 02:59:00,
2013-04-10 22:05:00,71.6,68.8,29.80,SE,132,1.0,9.0,91,0.00,,,0.00,0,Wunderground v.1.15,2013-04-11 03:05:00,
2013-04-10 22:10:00,71.6,68.8,29.79,SE,134,2.0,2.0,91,0.00,,,0.00,0,Wunderground v.1.15,2013-04-11 03:10:00,
2013-04-10 22:15:00,71.6,68.8,29.79,SE,146,2.0,9.0,91,0.00,,,0.00,0,Wunderground v.1.15,2013-04-11 03:15:00,
2013-04-10 22:21:00,71.5,68.7,29.79,SE,143,2.0,9.0,91,0.00,,,0.00,0,Wunderground v.1.15,2013-04-11 03:21:00,
2013-04-10 22:27:00,71.4,68.6,29.79,SSE,153,1.0,9.0,91,0.00,,,0.00,0,Wunderground v.1.15,2013-04-11 03:27:00,
2013-04-10 22:32:00,71.4,68.6,29.78,SSE,153,1.0,9.0,91,0.00,,,0.00,0,Wunderground v.1.15,2013-04-11 03:32:00,
2013-04-10 22:38:00,71.3,68.9,29.79,SE,138,1.0,9.0,92,0.00,,,0.00,0,Wunderground v.1.15,2013-04-11 03:38:00,
2013-04-10 22:43:00,71.3,68.9,29.78,SE,132,2.0,9.0,92,0.00,,,0.00,0,Wunderground v.1.15,2013-04-11 03:43:00,
2013-04-10 22:49:00,71.3,68.9,29.79,ESE,110,1.0,9.0,92,0.00,,,0.00,0,Wunderground v.1.15,2013-04-11 03:49:00,
2013-04-10 22:54:00,71.3,68.9,29.78,SE,138,1.0,9.0,92,0.00,,,0.00,0,Wunderground v.1.15,2013-04-11 03:54:00,
2013-04-10 22:59:00,71.3,68.9,29.78,SSE,165,1.0,9.0,92,0.00,,,0.00,0,Wunderground v.1.15,2013-04-11 03:59:00,
2013-04-10 23:00:00,71.3,68.9,29.78,SE,138,1.0,1.0,92,0.00,,,0.00,0,Wunderground v.1.15,2013-04-11 04:00:00,
2013-04-10 23:03:00,71.3,68.9,29.78,SSE,152,0.0,9.0,92,0.00,,,0.00,0,Wunderground v.1.15,2013-04-11 04:03:00,
2013-04-10 23:04:00,71.3,68.9,29.78,SSE,152,0.0,9.0,92,0.00,,,0.00,0,Wunderground v.1.15,2013-04-11 04:04:00,
2013-04-10 23:05:00,71.3,68.9,29.78,SE,127,0.0,9.0,92,0.00,,,0.00,0,Wunderground v.1.15,2013-04-11 04:05:00,
2013-04-10 23:10:00,71.2,68.8,29.77,South,171,0.0,9.0,92,0.00,,,0.00,0,Wunderground v.1.15,2013-04-11 04:10:00,
2013-04-10 23:15:00,71.2,68.8,29.77,SE,136,1.0,9.0,92,0.00,,,0.00,0,Wunderground v.1.15,2013-04-11 04:15:00,
2013-04-10 23:21:00,71.1,68.7,29.77,ESE,121,1.0,9.0,92,0.00,,,0.00,0,Wunderground v.1.15,2013-04-11 04:21:00,
2013-04-10 23:26:00,71.1,68.7,29.77,SSE,149,1.0,9.0,92,0.00,,,0.00,0,Wunderground v.1.15,2013-04-11 04:26:00,
2013-04-10 23:31:00,71.1,68.7,29.77,SE,138,1.0,4.0,92,0.00,,,0.00,0,Wunderground v.1.15,2013-04-11 04:31:00,
2013-04-10 23:37:00,71.1,68.7,29.77,South,177,1.0,9.0,92,0.00,,,0.00,0,Wunderground v.1.15,2013-04-11 04:37:00,
2013-04-10 23:42:00,71.1,68.7,29.77,SE,140,1.0,9.0,92,0.00,,,0.00,0,Wunderground v.1.15,2013-04-11 04:42:00,
2013-04-10 23:48:00,71.2,68.8,29.77,SE,142,1.0,9.0,92,0.00,,,0.00,0,Wunderground v.1.15,2013-04-11 04:48:00,
2013-04-10 23:53:00,71.1,69.0,29.77,SSE,156,1.0,9.0,93,0.00,,,0.00,0,Wunderground v.1.15,2013-04-11 04:53:00,
2013-04-10 23:59:00,71.1,69.0,29.76,ENE,77,1.0,9.0,93,0.00,,,0.00,0,Wunderground v.1.15,2013-04-11 04:59:00,